sensor_id;sensor_type;location;lat;lon;timestamp;P1;durP1;ratioP1;P2;durP2;ratioP2
64873;SDS011;51367;45.204;38.576;2023-07-28T00:02:10;5.55;;;5.05;;
64873;SDS011;51367;45.204;38.576;2023-07-28T00:04:36;6.47;;;5.85;;
64873;SDS011;51367;45.204;38.576;2023-07-28T00:07:03;5.75;;;5.18;;
64873;SDS011;51367;45.204;38.576;2023-07-28T00:09:29;5.72;;;5.20;;
64873;SDS011;51367;45.204;38.576;2023-07-28T00:11:59;5.18;;;4.78;;
64873;SDS011;51367;45.204;38.576;2023-07-28T00:14:26;5.63;;;5.13;;
64873;SDS011;51367;45.204;38.576;2023-07-28T00:16:52;7.05;;;4.57;;
64873;SDS011;51367;45.204;38.576;2023-07-28T00:19:19;5.25;;;4.40;;
64873;SDS011;51367;45.204;38.576;2023-07-28T00:21:48;6.28;;;4.60;;
64873;SDS011;51367;45.204;38.576;2023-07-28T00:24:15;4.82;;;4.43;;
64873;SDS011;51367;45.204;38.576;2023-07-28T00:26:41;4.88;;;4.47;;
64873;SDS011;51367;45.204;38.576;2023-07-28T00:29:07;5.55;;;5.05;;
64873;SDS011;51367;45.204;38.576;2023-07-28T00:31:34;4.47;;;4.07;;
64873;SDS011;51367;45.204;38.576;2023-07-28T00:34:01;5.07;;;4.57;;
64873;SDS011;51367;45.204;38.576;2023-07-28T00:36:29;9.05;;;4.85;;
64873;SDS011;51367;45.204;38.576;2023-07-28T00:38:55;5.32;;;4.82;;
64873;SDS011;51367;45.204;38.576;2023-07-28T00:41:22;5.30;;;4.80;;
64873;SDS011;51367;45.204;38.576;2023-07-28T00:43:48;5.13;;;4.72;;
64873;SDS011;51367;45.204;38.576;2023-07-28T00:46:14;5.35;;;4.60;;
64873;SDS011;51367;45.204;38.576;2023-07-28T00:48:41;5.03;;;4.65;;
64873;SDS011;51367;45.204;38.576;2023-07-28T00:51:08;5.30;;;4.80;;
64873;SDS011;51367;45.204;38.576;2023-07-28T00:53:35;8.10;;;5.28;;
64873;SDS011;51367;45.204;38.576;2023-07-28T00:56:01;6.28;;;5.55;;
64873;SDS011;51367;45.204;38.576;2023-07-28T00:58:28;5.15;;;4.68;;
64873;SDS011;51367;45.204;38.576;2023-07-28T01:00:54;6.53;;;5.22;;
64873;SDS011;51367;45.204;38.576;2023-07-28T01:03:20;5.63;;;5.13;;
64873;SDS011;51367;45.204;38.576;2023-07-28T01:06:26;5.82;;;4.90;;
64873;SDS011;51367;45.204;38.576;2023-07-28T01:11:22;5.63;;;5.10;;
64873;SDS011;51367;45.204;38.576;2023-07-28T01:13:47;8.05;;;5.22;;
64873;SDS011;51367;45.204;38.576;2023-07-28T01:16:13;6.53;;;4.80;;
64873;SDS011;51367;45.204;38.576;2023-07-28T01:18:40;4.95;;;4.55;;
64873;SDS011;51367;45.204;38.576;2023-07-28T01:21:08;7.47;;;5.40;;
64873;SDS011;51367;45.204;38.576;2023-07-28T01:26:34;4.70;;;4.30;;
64873;SDS011;51367;45.204;38.576;2023-07-28T01:29:01;7.55;;;4.70;;
64873;SDS011;51367;45.204;38.576;2023-07-28T01:31:29;5.22;;;4.72;;
64873;SDS011;51367;45.204;38.576;2023-07-28T01:33:55;5.03;;;4.63;;
64873;SDS011;51367;45.204;38.576;2023-07-28T01:36:21;5.80;;;5.00;;
64873;SDS011;51367;45.204;38.576;2023-07-28T01:38:47;5.47;;;5.07;;
64873;SDS011;51367;45.204;38.576;2023-07-28T01:41:13;6.28;;;4.80;;
64873;SDS011;51367;45.204;38.576;2023-07-28T01:43:39;6.07;;;5.35;;
64873;SDS011;51367;45.204;38.576;2023-07-28T01:46:07;6.68;;;5.55;;
64873;SDS011;51367;45.204;38.576;2023-07-28T01:48:33;9.65;;;5.68;;
64873;SDS011;51367;45.204;38.576;2023-07-28T01:50:59;6.20;;;5.63;;
64873;SDS011;51367;45.204;38.576;2023-07-28T01:53:25;9.98;;;5.45;;
64873;SDS011;51367;45.204;38.576;2023-07-28T01:55:51;6.03;;;5.43;;
64873;SDS011;51367;45.204;38.576;2023-07-28T01:58:17;6.20;;;5.60;;
64873;SDS011;51367;45.204;38.576;2023-07-28T02:00:42;5.63;;;5.18;;
64873;SDS011;51367;45.204;38.576;2023-07-28T02:03:08;5.57;;;5.07;;
64873;SDS011;51367;45.204;38.576;2023-07-28T02:05:34;12.80;;;5.25;;
64873;SDS011;51367;45.204;38.576;2023-07-28T02:08:00;5.03;;;4.63;;
64873;SDS011;51367;45.204;38.576;2023-07-28T02:10:26;5.43;;;4.93;;
64873;SDS011;51367;45.204;38.576;2023-07-28T02:12:53;7.63;;;5.30;;
64873;SDS011;51367;45.204;38.576;2023-07-28T02:15:19;6.30;;;5.70;;
64873;SDS011;51367;45.204;38.576;2023-07-28T02:17:45;5.95;;;4.75;;
64873;SDS011;51367;45.204;38.576;2023-07-28T02:20:11;5.07;;;4.68;;
64873;SDS011;51367;45.204;38.576;2023-07-28T02:22:39;5.13;;;4.72;;
64873;SDS011;51367;45.204;38.576;2023-07-28T02:25:05;5.07;;;4.57;;
64873;SDS011;51367;45.204;38.576;2023-07-28T02:27:31;6.60;;;4.80;;
64873;SDS011;51367;45.204;38.576;2023-07-28T02:29:57;5.57;;;5.03;;
64873;SDS011;51367;45.204;38.576;2023-07-28T02:32:23;5.43;;;4.97;;
64873;SDS011;51367;45.204;38.576;2023-07-28T02:34:49;5.82;;;5.15;;
64873;SDS011;51367;45.204;38.576;2023-07-28T02:37:15;5.78;;;4.60;;
64873;SDS011;51367;45.204;38.576;2023-07-28T02:39:42;4.72;;;4.32;;
64873;SDS011;51367;45.204;38.576;2023-07-28T02:42:08;7.20;;;5.10;;
64873;SDS011;51367;45.204;38.576;2023-07-28T02:44:34;8.95;;;5.82;;
64873;SDS011;51367;45.204;38.576;2023-07-28T02:47:00;5.05;;;4.57;;
64873;SDS011;51367;45.204;38.576;2023-07-28T02:49:27;6.63;;;4.35;;
64873;SDS011;51367;45.204;38.576;2023-07-28T02:51:53;4.32;;;4.00;;
64873;SDS011;51367;45.204;38.576;2023-07-28T02:54:19;9.18;;;4.68;;
64873;SDS011;51367;45.204;38.576;2023-07-28T02:56:46;4.93;;;4.53;;
64873;SDS011;51367;45.204;38.576;2023-07-28T02:59:13;5.82;;;4.00;;
64873;SDS011;51367;45.204;38.576;2023-07-28T03:01:39;6.68;;;4.00;;
64873;SDS011;51367;45.204;38.576;2023-07-28T03:04:05;6.18;;;4.13;;
64873;SDS011;51367;45.204;38.576;2023-07-28T03:06:50;4.30;;;3.90;;
64873;SDS011;51367;45.204;38.576;2023-07-28T03:09:17;4.47;;;4.07;;
64873;SDS011;51367;45.204;38.576;2023-07-28T03:11:53;4.68;;;4.28;;
64873;SDS011;51367;45.204;38.576;2023-07-28T03:14:20;5.93;;;4.00;;
64873;SDS011;51367;45.204;38.576;2023-07-28T03:16:46;4.95;;;4.40;;
64873;SDS011;51367;45.204;38.576;2023-07-28T03:19:11;4.53;;;4.20;;
64873;SDS011;51367;45.204;38.576;2023-07-28T03:21:37;5.65;;;4.57;;
64873;SDS011;51367;45.204;38.576;2023-07-28T03:24:03;4.60;;;4.15;;
64873;SDS011;51367;45.204;38.576;2023-07-28T03:26:30;7.22;;;4.47;;
64873;SDS011;51367;45.204;38.576;2023-07-28T03:28:56;5.63;;;4.47;;
64873;SDS011;51367;45.204;38.576;2023-07-28T03:31:22;5.68;;;4.30;;
64873;SDS011;51367;45.204;38.576;2023-07-28T03:33:48;7.57;;;4.72;;
64873;SDS011;51367;45.204;38.576;2023-07-28T03:36:13;6.18;;;4.55;;
64873;SDS011;51367;45.204;38.576;2023-07-28T03:38:39;7.00;;;4.05;;
64873;SDS011;51367;45.204;38.576;2023-07-28T03:41:05;3.67;;;3.33;;
64873;SDS011;51367;45.204;38.576;2023-07-28T03:43:32;4.88;;;3.70;;
64873;SDS011;51367;45.204;38.576;2023-07-28T03:45:58;6.68;;;3.53;;
64873;SDS011;51367;45.204;38.576;2023-07-28T03:48:24;4.07;;;3.63;;
64873;SDS011;51367;45.204;38.576;2023-07-28T03:50:50;4.53;;;3.30;;
64873;SDS011;51367;45.204;38.576;2023-07-28T03:53:16;5.57;;;3.75;;
64873;SDS011;51367;45.204;38.576;2023-07-28T03:55:42;5.22;;;3.60;;
64873;SDS011;51367;45.204;38.576;2023-07-28T03:58:08;4.70;;;3.50;;
64873;SDS011;51367;45.204;38.576;2023-07-28T04:00:34;7.97;;;3.65;;
64873;SDS011;51367;45.204;38.576;2023-07-28T04:03:00;3.97;;;3.08;;
64873;SDS011;51367;45.204;38.576;2023-07-28T04:05:25;3.15;;;2.40;;
64873;SDS011;51367;45.204;38.576;2023-07-28T04:07:51;3.22;;;2.55;;
64873;SDS011;51367;45.204;38.576;2023-07-28T04:10:17;5.18;;;2.78;;
64873;SDS011;51367;45.204;38.576;2023-07-28T04:12:43;5.95;;;2.47;;
64873;SDS011;51367;45.204;38.576;2023-07-28T04:15:09;2.67;;;2.20;;
64873;SDS011;51367;45.204;38.576;2023-07-28T04:17:35;7.38;;;2.50;;
64873;SDS011;51367;45.204;38.576;2023-07-28T04:20:01;5.40;;;2.70;;
64873;SDS011;51367;45.204;38.576;2023-07-28T04:22:27;1.90;;;1.80;;
64873;SDS011;51367;45.204;38.576;2023-07-28T04:24:54;3.40;;;2.58;;
64873;SDS011;51367;45.204;38.576;2023-07-28T04:27:20;3.58;;;2.65;;
64873;SDS011;51367;45.204;38.576;2023-07-28T04:29:47;2.95;;;2.00;;
64873;SDS011;51367;45.204;38.576;2023-07-28T04:32:18;3.08;;;2.33;;
64873;SDS011;51367;45.204;38.576;2023-07-28T04:34:44;7.20;;;2.65;;
64873;SDS011;51367;45.204;38.576;2023-07-28T04:37:15;4.60;;;2.85;;
64873;SDS011;51367;45.204;38.576;2023-07-28T04:39:53;3.13;;;2.63;;
64873;SDS011;51367;45.204;38.576;2023-07-28T04:42:19;3.85;;;2.92;;
64873;SDS011;51367;45.204;38.576;2023-07-28T04:44:46;6.60;;;3.42;;
64873;SDS011;51367;45.204;38.576;2023-07-28T04:47:13;4.78;;;2.45;;
64873;SDS011;51367;45.204;38.576;2023-07-28T04:49:40;10.82;;;3.63;;
64873;SDS011;51367;45.204;38.576;2023-07-28T04:52:06;9.10;;;3.40;;
64873;SDS011;51367;45.204;38.576;2023-07-28T04:55:02;2.58;;;2.38;;
64873;SDS011;51367;45.204;38.576;2023-07-28T04:57:29;8.23;;;2.60;;
64873;SDS011;51367;45.204;38.576;2023-07-28T04:59:55;3.60;;;2.50;;
64873;SDS011;51367;45.204;38.576;2023-07-28T05:02:21;4.53;;;2.42;;
64873;SDS011;51367;45.204;38.576;2023-07-28T05:04:47;10.10;;;2.80;;
64873;SDS011;51367;45.204;38.576;2023-07-28T05:07:13;3.78;;;2.60;;
64873;SDS011;51367;45.204;38.576;2023-07-28T05:09:39;9.77;;;3.22;;
64873;SDS011;51367;45.204;38.576;2023-07-28T05:12:05;8.80;;;2.90;;
64873;SDS011;51367;45.204;38.576;2023-07-28T05:14:39;13.00;;;3.85;;
64873;SDS011;51367;45.204;38.576;2023-07-28T05:17:05;4.50;;;2.72;;
64873;SDS011;51367;45.204;38.576;2023-07-28T05:19:54;5.82;;;3.35;;
64873;SDS011;51367;45.204;38.576;2023-07-28T05:22:35;7.72;;;3.78;;
64873;SDS011;51367;45.204;38.576;2023-07-28T05:25:01;3.20;;;2.50;;
64873;SDS011;51367;45.204;38.576;2023-07-28T05:27:29;3.42;;;2.55;;
64873;SDS011;51367;45.204;38.576;2023-07-28T05:29:55;2.90;;;2.50;;
64873;SDS011;51367;45.204;38.576;2023-07-28T05:32:21;5.30;;;3.03;;
64873;SDS011;51367;45.204;38.576;2023-07-28T05:35:06;8.73;;;3.28;;
64873;SDS011;51367;45.204;38.576;2023-07-28T05:37:32;9.38;;;3.03;;
64873;SDS011;51367;45.204;38.576;2023-07-28T05:39:58;3.05;;;2.40;;
64873;SDS011;51367;45.204;38.576;2023-07-28T05:42:25;6.03;;;3.50;;
64873;SDS011;51367;45.204;38.576;2023-07-28T05:44:51;4.30;;;2.60;;
64873;SDS011;51367;45.204;38.576;2023-07-28T05:47:20;4.93;;;3.65;;
64873;SDS011;51367;45.204;38.576;2023-07-28T05:49:46;3.70;;;2.22;;
64873;SDS011;51367;45.204;38.576;2023-07-28T05:52:12;3.25;;;2.58;;
64873;SDS011;51367;45.204;38.576;2023-07-28T05:54:38;4.43;;;2.42;;
64873;SDS011;51367;45.204;38.576;2023-07-28T05:57:04;4.30;;;2.22;;
64873;SDS011;51367;45.204;38.576;2023-07-28T05:59:30;2.83;;;2.28;;
64873;SDS011;51367;45.204;38.576;2023-07-28T06:01:56;5.07;;;2.75;;
64873;SDS011;51367;45.204;38.576;2023-07-28T06:04:34;12.73;;;2.40;;
64873;SDS011;51367;45.204;38.576;2023-07-28T06:07:02;5.20;;;1.92;;
64873;SDS011;51367;45.204;38.576;2023-07-28T06:09:28;3.63;;;2.58;;
64873;SDS011;51367;45.204;38.576;2023-07-28T06:11:54;3.08;;;2.45;;
64873;SDS011;51367;45.204;38.576;2023-07-28T06:14:22;2.45;;;2.13;;
64873;SDS011;51367;45.204;38.576;2023-07-28T06:16:48;3.03;;;1.92;;
64873;SDS011;51367;45.204;38.576;2023-07-28T06:19:14;4.55;;;2.65;;
64873;SDS011;51367;45.204;38.576;2023-07-28T06:21:42;8.95;;;2.88;;
64873;SDS011;51367;45.204;38.576;2023-07-28T06:24:08;4.38;;;2.38;;
64873;SDS011;51367;45.204;38.576;2023-07-28T06:26:34;5.43;;;2.45;;
64873;SDS011;51367;45.204;38.576;2023-07-28T06:29:00;8.32;;;2.13;;
64873;SDS011;51367;45.204;38.576;2023-07-28T06:31:26;3.88;;;2.47;;
64873;SDS011;51367;45.204;38.576;2023-07-28T06:33:52;2.47;;;1.98;;
64873;SDS011;51367;45.204;38.576;2023-07-28T06:36:18;4.25;;;2.30;;
64873;SDS011;51367;45.204;38.576;2023-07-28T06:38:43;2.20;;;1.58;;
64873;SDS011;51367;45.204;38.576;2023-07-28T06:41:13;2.83;;;2.03;;
64873;SDS011;51367;45.204;38.576;2023-07-28T06:43:40;2.15;;;2.00;;
64873;SDS011;51367;45.204;38.576;2023-07-28T06:46:07;3.95;;;2.13;;
64873;SDS011;51367;45.204;38.576;2023-07-28T06:48:33;3.97;;;2.25;;
64873;SDS011;51367;45.204;38.576;2023-07-28T06:50:59;3.88;;;2.60;;
64873;SDS011;51367;45.204;38.576;2023-07-28T06:53:26;4.60;;;2.20;;
64873;SDS011;51367;45.204;38.576;2023-07-28T06:55:52;1.92;;;1.73;;
64873;SDS011;51367;45.204;38.576;2023-07-28T06:58:21;6.57;;;1.95;;
64873;SDS011;51367;45.204;38.576;2023-07-28T07:00:47;7.20;;;1.88;;
64873;SDS011;51367;45.204;38.576;2023-07-28T07:03:13;3.55;;;1.80;;
64873;SDS011;51367;45.204;38.576;2023-07-28T07:05:39;1.73;;;1.25;;
64873;SDS011;51367;45.204;38.576;2023-07-28T07:08:06;5.25;;;1.83;;
64873;SDS011;51367;45.204;38.576;2023-07-28T07:10:31;1.27;;;1.15;;
64873;SDS011;51367;45.204;38.576;2023-07-28T07:12:57;3.00;;;1.40;;
64873;SDS011;51367;45.204;38.576;2023-07-28T07:15:23;2.10;;;1.50;;
64873;SDS011;51367;45.204;38.576;2023-07-28T07:17:49;2.60;;;1.33;;
64873;SDS011;51367;45.204;38.576;2023-07-28T07:20:15;2.55;;;1.75;;
64873;SDS011;51367;45.204;38.576;2023-07-28T07:22:41;5.18;;;2.55;;
64873;SDS011;51367;45.204;38.576;2023-07-28T07:25:09;10.23;;;1.38;;
64873;SDS011;51367;45.204;38.576;2023-07-28T07:27:35;1.48;;;1.38;;
64873;SDS011;51367;45.204;38.576;2023-07-28T07:30:01;11.13;;;2.05;;
64873;SDS011;51367;45.204;38.576;2023-07-28T07:32:29;1.67;;;1.38;;
64873;SDS011;51367;45.204;38.576;2023-07-28T07:34:55;2.63;;;1.38;;
64873;SDS011;51367;45.204;38.576;2023-07-28T07:37:21;1.40;;;1.17;;
64873;SDS011;51367;45.204;38.576;2023-07-28T07:39:47;4.57;;;1.55;;
64873;SDS011;51367;45.204;38.576;2023-07-28T07:42:12;3.67;;;1.52;;
64873;SDS011;51367;45.204;38.576;2023-07-28T07:44:39;2.08;;;1.48;;
64873;SDS011;51367;45.204;38.576;2023-07-28T07:47:12;2.42;;;1.48;;
64873;SDS011;51367;45.204;38.576;2023-07-28T07:49:39;2.83;;;1.27;;
64873;SDS011;51367;45.204;38.576;2023-07-28T07:52:08;2.08;;;1.45;;
64873;SDS011;51367;45.204;38.576;2023-07-28T07:54:35;3.13;;;1.58;;
64873;SDS011;51367;45.204;38.576;2023-07-28T07:57:01;10.23;;;1.48;;
64873;SDS011;51367;45.204;38.576;2023-07-28T07:59:28;1.90;;;1.00;;
64873;SDS011;51367;45.204;38.576;2023-07-28T08:01:57;8.77;;;1.98;;
64873;SDS011;51367;45.204;38.576;2023-07-28T08:04:25;4.32;;;1.90;;
64873;SDS011;51367;45.204;38.576;2023-07-28T08:06:53;6.05;;;1.92;;
64873;SDS011;51367;45.204;38.576;2023-07-28T08:09:19;6.03;;;2.55;;
64873;SDS011;51367;45.204;38.576;2023-07-28T08:11:45;3.17;;;2.13;;
64873;SDS011;51367;45.204;38.576;2023-07-28T08:14:11;2.08;;;1.65;;
64873;SDS011;51367;45.204;38.576;2023-07-28T08:16:37;4.35;;;1.70;;
64873;SDS011;51367;45.204;38.576;2023-07-28T08:19:03;3.55;;;1.80;;
64873;SDS011;51367;45.204;38.576;2023-07-28T08:21:29;1.30;;;1.00;;
64873;SDS011;51367;45.204;38.576;2023-07-28T08:23:56;3.25;;;1.35;;
64873;SDS011;51367;45.204;38.576;2023-07-28T08:26:22;2.70;;;1.45;;
64873;SDS011;51367;45.204;38.576;2023-07-28T08:28:48;2.17;;;1.27;;
64873;SDS011;51367;45.204;38.576;2023-07-28T08:31:14;6.40;;;1.40;;
64873;SDS011;51367;45.204;38.576;2023-07-28T08:33:40;2.58;;;1.30;;
64873;SDS011;51367;45.204;38.576;2023-07-28T08:36:06;5.18;;;1.40;;
64873;SDS011;51367;45.204;38.576;2023-07-28T08:38:32;1.85;;;1.20;;
64873;SDS011;51367;45.204;38.576;2023-07-28T08:40:58;1.48;;;0.95;;
64873;SDS011;51367;45.204;38.576;2023-07-28T08:43:24;2.42;;;1.40;;
64873;SDS011;51367;45.204;38.576;2023-07-28T08:45:50;3.15;;;1.27;;
64873;SDS011;51367;45.204;38.576;2023-07-28T08:48:18;3.45;;;1.63;;
64873;SDS011;51367;45.204;38.576;2023-07-28T08:50:44;4.38;;;1.17;;
64873;SDS011;51367;45.204;38.576;2023-07-28T08:53:10;1.48;;;0.60;;
64873;SDS011;51367;45.204;38.576;2023-07-28T08:55:36;1.98;;;0.85;;
64873;SDS011;51367;45.204;38.576;2023-07-28T08:58:17;5.63;;;1.10;;
64873;SDS011;51367;45.204;38.576;2023-07-28T09:00:44;4.50;;;0.85;;
64873;SDS011;51367;45.204;38.576;2023-07-28T09:03:14;2.05;;;0.50;;
64873;SDS011;51367;45.204;38.576;2023-07-28T09:05:42;0.50;;;0.50;;
64873;SDS011;51367;45.204;38.576;2023-07-28T09:08:09;5.93;;;1.10;;
64873;SDS011;51367;45.204;38.576;2023-07-28T09:13:12;1.55;;;0.73;;
64873;SDS011;51367;45.204;38.576;2023-07-28T09:15:39;0.75;;;0.75;;
64873;SDS011;51367;45.204;38.576;2023-07-28T09:18:08;0.82;;;0.82;;
64873;SDS011;51367;45.204;38.576;2023-07-28T09:20:39;3.92;;;0.90;;
64873;SDS011;51367;45.204;38.576;2023-07-28T09:23:09;5.00;;;1.15;;
64873;SDS011;51367;45.204;38.576;2023-07-28T09:25:36;1.27;;;0.80;;
64873;SDS011;51367;45.204;38.576;2023-07-28T09:28:03;4.70;;;1.73;;
64873;SDS011;51367;45.204;38.576;2023-07-28T09:30:45;2.20;;;0.98;;
64873;SDS011;51367;45.204;38.576;2023-07-28T09:33:13;2.10;;;0.93;;
64873;SDS011;51367;45.204;38.576;2023-07-28T09:35:49;2.75;;;0.90;;
64873;SDS011;51367;45.204;38.576;2023-07-28T09:38:16;3.38;;;1.50;;
64873;SDS011;51367;45.204;38.576;2023-07-28T09:40:43;1.02;;;0.93;;
64873;SDS011;51367;45.204;38.576;2023-07-28T09:43:10;3.70;;;0.73;;
64873;SDS011;51367;45.204;38.576;2023-07-28T09:45:37;3.05;;;0.98;;
64873;SDS011;51367;45.204;38.576;2023-07-28T09:48:05;1.00;;;0.80;;
64873;SDS011;51367;45.204;38.576;2023-07-28T09:50:35;4.68;;;1.17;;
64873;SDS011;51367;45.204;38.576;2023-07-28T09:53:03;2.08;;;0.68;;
64873;SDS011;51367;45.204;38.576;2023-07-28T09:55:29;2.80;;;1.30;;
64873;SDS011;51367;45.204;38.576;2023-07-28T09:57:57;2.38;;;1.13;;
64873;SDS011;51367;45.204;38.576;2023-07-28T10:00:26;0.60;;;0.60;;
64873;SDS011;51367;45.204;38.576;2023-07-28T10:02:53;8.30;;;1.13;;
64873;SDS011;51367;45.204;38.576;2023-07-28T10:05:19;2.63;;;0.70;;
64873;SDS011;51367;45.204;38.576;2023-07-28T10:07:47;0.90;;;0.60;;
64873;SDS011;51367;45.204;38.576;2023-07-28T10:10:14;2.72;;;0.60;;
64873;SDS011;51367;45.204;38.576;2023-07-28T10:12:42;8.50;;;0.60;;
64873;SDS011;51367;45.204;38.576;2023-07-28T10:15:14;5.20;;;0.98;;
64873;SDS011;51367;45.204;38.576;2023-07-28T10:17:45;0.65;;;0.43;;
64873;SDS011;51367;45.204;38.576;2023-07-28T10:20:33;3.83;;;0.85;;
64873;SDS011;51367;45.204;38.576;2023-07-28T10:23:06;4.70;;;0.90;;
64873;SDS011;51367;45.204;38.576;2023-07-28T10:25:43;0.52;;;0.50;;
64873;SDS011;51367;45.204;38.576;2023-07-28T10:28:29;2.95;;;0.88;;
64873;SDS011;51367;45.204;38.576;2023-07-28T10:31:01;2.15;;;0.70;;
64873;SDS011;51367;45.204;38.576;2023-07-28T10:33:37;1.65;;;0.80;;
64873;SDS011;51367;45.204;38.576;2023-07-28T10:42:01;0.98;;;0.65;;
64873;SDS011;51367;45.204;38.576;2023-07-28T10:44:28;7.93;;;0.93;;
64873;SDS011;51367;45.204;38.576;2023-07-28T10:46:54;2.55;;;0.80;;
64873;SDS011;51367;45.204;38.576;2023-07-28T10:49:20;0.93;;;0.57;;
64873;SDS011;51367;45.204;38.576;2023-07-28T10:51:46;2.05;;;0.80;;
64873;SDS011;51367;45.204;38.576;2023-07-28T10:54:12;0.82;;;0.65;;
64873;SDS011;51367;45.204;38.576;2023-07-28T10:56:42;2.13;;;1.15;;
64873;SDS011;51367;45.204;38.576;2023-07-28T10:59:07;1.33;;;0.75;;
64873;SDS011;51367;45.204;38.576;2023-07-28T11:01:34;0.80;;;0.65;;
64873;SDS011;51367;45.204;38.576;2023-07-28T11:04:11;2.58;;;0.50;;
64873;SDS011;51367;45.204;38.576;2023-07-28T11:06:38;3.83;;;1.13;;
64873;SDS011;51367;45.204;38.576;2023-07-28T11:09:08;11.40;;;1.05;;
64873;SDS011;51367;45.204;38.576;2023-07-28T11:11:35;3.13;;;0.93;;
64873;SDS011;51367;45.204;38.576;2023-07-28T11:14:04;3.80;;;0.60;;
64873;SDS011;51367;45.204;38.576;2023-07-28T11:16:30;0.85;;;0.55;;
64873;SDS011;51367;45.204;38.576;2023-07-28T11:19:01;1.75;;;0.60;;
64873;SDS011;51367;45.204;38.576;2023-07-28T11:21:29;0.73;;;0.57;;
64873;SDS011;51367;45.204;38.576;2023-07-28T11:23:56;4.55;;;1.27;;
64873;SDS011;51367;45.204;38.576;2023-07-28T11:26:22;4.13;;;0.65;;
64873;SDS011;51367;45.204;38.576;2023-07-28T11:28:48;3.35;;;0.80;;
64873;SDS011;51367;45.204;38.576;2023-07-28T11:31:14;2.67;;;0.90;;
64873;SDS011;51367;45.204;38.576;2023-07-28T11:33:40;1.10;;;0.77;;
64873;SDS011;51367;45.204;38.576;2023-07-28T11:36:06;0.47;;;0.40;;
64873;SDS011;51367;45.204;38.576;2023-07-28T11:38:33;0.45;;;0.45;;
64873;SDS011;51367;45.204;38.576;2023-07-28T11:41:00;0.93;;;0.63;;
64873;SDS011;51367;45.204;38.576;2023-07-28T11:43:27;3.05;;;1.00;;
64873;SDS011;51367;45.204;38.576;2023-07-28T11:45:54;1.60;;;1.13;;
64873;SDS011;51367;45.204;38.576;2023-07-28T11:48:20;1.95;;;0.80;;
64873;SDS011;51367;45.204;38.576;2023-07-28T11:50:46;0.77;;;0.50;;
64873;SDS011;51367;45.204;38.576;2023-07-28T11:53:12;0.70;;;0.70;;
64873;SDS011;51367;45.204;38.576;2023-07-28T11:55:39;1.40;;;1.15;;
64873;SDS011;51367;45.204;38.576;2023-07-28T11:58:05;0.88;;;0.68;;
64873;SDS011;51367;45.204;38.576;2023-07-28T12:00:32;1.05;;;0.52;;
64873;SDS011;51367;45.204;38.576;2023-07-28T12:03:01;2.70;;;0.80;;
64873;SDS011;51367;45.204;38.576;2023-07-28T12:05:29;0.60;;;0.60;;
64873;SDS011;51367;45.204;38.576;2023-07-28T12:07:55;0.52;;;0.40;;
64873;SDS011;51367;45.204;38.576;2023-07-28T12:10:21;1.13;;;0.70;;
64873;SDS011;51367;45.204;38.576;2023-07-28T12:12:47;0.60;;;0.60;;
64873;SDS011;51367;45.204;38.576;2023-07-28T12:15:20;0.50;;;0.50;;
64873;SDS011;51367;45.204;38.576;2023-07-28T12:20:42;0.80;;;0.60;;
64873;SDS011;51367;45.204;38.576;2023-07-28T12:23:20;5.03;;;0.70;;
64873;SDS011;51367;45.204;38.576;2023-07-28T12:25:48;4.45;;;0.82;;
64873;SDS011;51367;45.204;38.576;2023-07-28T12:28:15;1.73;;;0.70;;
64873;SDS011;51367;45.204;38.576;2023-07-28T12:30:41;4.13;;;0.60;;
64873;SDS011;51367;45.204;38.576;2023-07-28T12:33:09;0.32;;;0.30;;
64873;SDS011;51367;45.204;38.576;2023-07-28T12:35:35;1.75;;;0.60;;
64873;SDS011;51367;45.204;38.576;2023-07-28T12:38:04;0.90;;;0.43;;
64873;SDS011;51367;45.204;38.576;2023-07-28T12:40:31;0.55;;;0.55;;
64873;SDS011;51367;45.204;38.576;2023-07-28T12:42:59;4.50;;;0.65;;
64873;SDS011;51367;45.204;38.576;2023-07-28T12:45:27;1.30;;;0.40;;
64873;SDS011;51367;45.204;38.576;2023-07-28T12:47:53;1.15;;;0.55;;
64873;SDS011;51367;45.204;38.576;2023-07-28T12:50:20;0.93;;;0.63;;
64873;SDS011;51367;45.204;38.576;2023-07-28T12:52:47;1.65;;;0.88;;
64873;SDS011;51367;45.204;38.576;2023-07-28T12:55:14;0.45;;;0.40;;
64873;SDS011;51367;45.204;38.576;2023-07-28T12:57:40;8.27;;;0.90;;
64873;SDS011;51367;45.204;38.576;2023-07-28T13:00:06;0.90;;;0.70;;
64873;SDS011;51367;45.204;38.576;2023-07-28T13:02:41;1.98;;;0.52;;
64873;SDS011;51367;45.204;38.576;2023-07-28T13:05:08;3.05;;;0.52;;
64873;SDS011;51367;45.204;38.576;2023-07-28T13:07:36;2.97;;;0.57;;
64873;SDS011;51367;45.204;38.576;2023-07-28T13:10:02;1.63;;;0.70;;
64873;SDS011;51367;45.204;38.576;2023-07-28T13:12:29;0.45;;;0.45;;
64873;SDS011;51367;45.204;38.576;2023-07-28T13:14:55;1.75;;;0.40;;
64873;SDS011;51367;45.204;38.576;2023-07-28T13:17:21;2.88;;;0.40;;
64873;SDS011;51367;45.204;38.576;2023-07-28T13:19:47;0.85;;;0.45;;
64873;SDS011;51367;45.204;38.576;2023-07-28T13:22:13;5.07;;;0.88;;
64873;SDS011;51367;45.204;38.576;2023-07-28T13:24:39;0.73;;;0.40;;
64873;SDS011;51367;45.204;38.576;2023-07-28T13:27:06;0.60;;;0.45;;
64873;SDS011;51367;45.204;38.576;2023-07-28T13:29:32;0.60;;;0.60;;
64873;SDS011;51367;45.204;38.576;2023-07-28T13:31:59;0.32;;;0.32;;
64873;SDS011;51367;45.204;38.576;2023-07-28T13:34:26;0.95;;;0.50;;
64873;SDS011;51367;45.204;38.576;2023-07-28T13:36:53;3.25;;;1.00;;
64873;SDS011;51367;45.204;38.576;2023-07-28T13:39:19;2.67;;;0.30;;
64873;SDS011;51367;45.204;38.576;2023-07-28T13:41:45;1.48;;;0.40;;
64873;SDS011;51367;45.204;38.576;2023-07-28T13:44:11;1.00;;;0.88;;
64873;SDS011;51367;45.204;38.576;2023-07-28T13:46:37;14.20;;;1.17;;
64873;SDS011;51367;45.204;38.576;2023-07-28T13:49:03;0.45;;;0.40;;
64873;SDS011;51367;45.204;38.576;2023-07-28T13:51:29;1.85;;;0.55;;
64873;SDS011;51367;45.204;38.576;2023-07-28T13:53:55;2.90;;;0.80;;
64873;SDS011;51367;45.204;38.576;2023-07-28T13:56:20;1.20;;;1.02;;
64873;SDS011;51367;45.204;38.576;2023-07-28T13:58:46;1.00;;;0.50;;
64873;SDS011;51367;45.204;38.576;2023-07-28T14:01:12;0.47;;;0.43;;
64873;SDS011;51367;45.204;38.576;2023-07-28T14:03:38;3.75;;;0.50;;
64873;SDS011;51367;45.204;38.576;2023-07-28T14:06:04;1.13;;;0.50;;
64873;SDS011;51367;45.204;38.576;2023-07-28T14:08:30;0.60;;;0.38;;
64873;SDS011;51367;45.204;38.576;2023-07-28T14:10:56;1.38;;;0.70;;
64873;SDS011;51367;45.204;38.576;2023-07-28T14:13:22;0.82;;;0.50;;
64873;SDS011;51367;45.204;38.576;2023-07-28T14:15:48;1.95;;;0.85;;
64873;SDS011;51367;45.204;38.576;2023-07-28T14:18:15;2.55;;;0.90;;
64873;SDS011;51367;45.204;38.576;2023-07-28T14:20:41;1.42;;;0.98;;
64873;SDS011;51367;45.204;38.576;2023-07-28T14:23:22;2.80;;;0.73;;
64873;SDS011;51367;45.204;38.576;2023-07-28T14:25:50;1.30;;;0.82;;
64873;SDS011;51367;45.204;38.576;2023-07-28T14:28:16;1.67;;;0.80;;
64873;SDS011;51367;45.204;38.576;2023-07-28T14:30:42;0.60;;;0.60;;
64873;SDS011;51367;45.204;38.576;2023-07-28T14:33:15;13.02;;;0.70;;
64873;SDS011;51367;45.204;38.576;2023-07-28T14:35:45;2.80;;;1.38;;
64873;SDS011;51367;45.204;38.576;2023-07-28T14:38:12;7.45;;;1.08;;
64873;SDS011;51367;45.204;38.576;2023-07-28T14:40:38;0.50;;;0.50;;
64873;SDS011;51367;45.204;38.576;2023-07-28T14:43:05;0.63;;;0.63;;
64873;SDS011;51367;45.204;38.576;2023-07-28T14:45:32;1.55;;;0.88;;
64873;SDS011;51367;45.204;38.576;2023-07-28T14:47:58;0.82;;;0.70;;
64873;SDS011;51367;45.204;38.576;2023-07-28T14:50:25;1.17;;;0.70;;
64873;SDS011;51367;45.204;38.576;2023-07-28T14:52:52;10.85;;;1.63;;